Time;durP1;ratioP1;P1;durP2;ratioP2;P2;SDS_P1;SDS_P2;PMS_P1;PMS_P2;Temp;Humidity;BMP_temperature;BMP_pressure;BME280_temperature;BME280_humidity;BME280_pressure;Samples;Min_cycle;Max_cycle;Signal;HPM_P1;HPM_P2
2023/04/25 00:01:05;;;;;;;1.07;0.93;;;7.50;99.90;;;;;;4994026;28;20518;-70
2023/04/25 00:03:32;;;;;;;0.60;0.60;;;7.50;99.90;;;;;;4993962;28;20654;-70
2023/04/25 00:06:02;;;;;;;0.85;0.85;;;7.50;99.90;;;;;;4993833;28;20305;-70
2023/04/25 00:08:29;;;;;;;1.02;0.95;;;7.50;99.90;;;;;;4993800;28;20179;-69
2023/04/25 00:10:55;;;;;;;2.95;1.77;;;7.50;99.90;;;;;;4993919;28;20197;-70
2023/04/25 00:13:21;;;;;;;0.63;0.63;;;7.60;99.90;;;;;;4993890;28;20546;-70
2023/04/25 00:15:48;;;;;;;1.70;1.60;;;7.60;99.90;;;;;;4993722;28;20489;-69
2023/04/25 00:18:14;;;;;;;2.05;1.15;;;7.60;99.90;;;;;;4993610;28;20663;-69
2023/04/25 00:20:40;;;;;;;0.40;0.40;;;7.70;99.90;;;;;;4993867;28;20175;-70
2023/04/25 00:23:05;;;;;;;1.80;1.70;;;7.90;99.90;;;;;;4993754;28;20669;-70
2023/04/25 00:25:31;;;;;;;0.70;0.70;;;7.60;99.90;;;;;;4993744;28;20441;-69
2023/04/25 00:27:57;;;;;;;0.80;0.80;;;7.50;99.90;;;;;;4993568;28;20421;-70
2023/04/25 00:30:22;;;;;;;0.43;0.43;;;7.60;99.90;;;;;;4993724;28;20206;-70
2023/04/25 00:32:48;;;;;;;1.33;1.00;;;7.50;99.90;;;;;;4993778;28;20171;-70
2023/04/25 00:35:14;;;;;;;0.70;0.70;;;7.50;99.90;;;;;;4993498;28;20193;-70
2023/04/25 00:37:40;;;;;;;0.40;0.40;;;7.60;99.90;;;;;;4993476;28;20402;-70
2023/04/25 00:40:06;;;;;;;0.83;0.83;;;7.60;99.90;;;;;;4993744;28;20182;-70
2023/04/25 00:42:32;;;;;;;0.40;0.40;;;7.70;99.90;;;;;;4993562;28;20409;-69
2023/04/25 00:44:59;;;;;;;0.90;0.90;;;7.70;99.90;;;;;;4993422;28;20208;-69
2023/04/25 00:47:25;;;;;;;0.60;0.60;;;7.70;99.90;;;;;;4993366;28;20182;-70
2023/04/25 00:49:53;;;;;;;0.93;0.93;;;7.70;99.90;;;;;;4993777;28;20221;-70
2023/04/25 00:52:19;;;;;;;0.80;0.80;;;7.80;99.90;;;;;;4993263;28;20189;-70
2023/04/25 00:54:45;;;;;;;0.70;0.70;;;7.80;99.90;;;;;;4993321;28;20246;-70
2023/04/25 00:57:11;;;;;;;0.43;0.43;;;7.70;99.90;;;;;;4992036;28;20632;-70
2023/04/25 00:59:38;;;;;;;0.50;0.50;;;7.60;99.90;;;;;;4993561;28;20214;-69
2023/04/25 01:02:04;;;;;;;0.50;0.50;;;7.50;99.90;;;;;;4994110;28;20757;-70
2023/04/25 01:04:30;;;;;;;0.88;0.88;;;7.50;99.90;;;;;;4996794;28;20548;-70
2023/04/25 01:06:56;;;;;;;1.37;1.27;;;7.50;99.90;;;;;;4997032;28;20262;-70
2023/04/25 01:09:23;;;;;;;1.67;1.58;;;7.50;99.90;;;;;;4996802;28;20245;-70
2023/04/25 01:11:49;;;;;;;0.80;0.80;;;7.30;99.90;;;;;;4996862;28;20178;-69
2023/04/25 01:14:15;;;;;;;0.60;0.60;;;7.20;99.90;;;;;;4996551;28;20190;-70
2023/04/25 01:16:41;;;;;;;1.93;1.83;;;7.20;99.90;;;;;;4996735;28;20191;-70
2023/04/25 01:19:13;;;;;;;2.33;2.20;;;7.20;99.90;;;;;;4996410;28;20241;-69
2023/04/25 01:21:39;;;;;;;0.50;0.50;;;7.10;99.90;;;;;;4996639;28;20256;-70
2023/04/25 01:24:06;;;;;;;0.95;0.95;;;6.90;99.90;;;;;;4996625;28;20200;-69
2023/04/25 01:26:32;;;;;;;1.13;1.02;;;6.90;99.90;;;;;;4996553;28;20192;-69
2023/04/25 01:28:58;;;;;;;1.42;1.42;;;6.80;99.90;;;;;;4996429;28;20169;-69
2023/04/25 01:31:24;;;;;;;0.85;0.85;;;6.80;99.90;;;;;;4996454;28;20208;-69
2023/04/25 01:33:50;;;;;;;0.40;0.40;;;6.70;99.90;;;;;;4996295;28;20694;-70
2023/04/25 01:36:16;;;;;;;2.13;1.43;;;6.80;99.90;;;;;;4996396;28;20741;-69
2023/04/25 01:38:43;;;;;;;0.50;0.50;;;6.80;99.90;;;;;;4996226;28;20171;-69
2023/04/25 01:41:09;;;;;;;2.35;2.25;;;6.80;99.90;;;;;;4996312;28;20201;-69
2023/04/25 01:43:35;;;;;;;0.80;0.80;;;6.80;99.90;;;;;;4996231;28;20198;-69
2023/04/25 01:46:01;;;;;;;0.50;0.50;;;6.90;99.90;;;;;;4996233;28;20178;-69
2023/04/25 01:48:27;;;;;;;1.83;1.77;;;7.00;99.90;;;;;;4995854;28;20257;-69
2023/04/25 01:50:52;;;;;;;0.77;0.77;;;7.10;99.90;;;;;;4995964;28;20479;-69
2023/04/25 01:53:18;;;;;;;0.83;0.83;;;7.20;99.90;;;;;;4995878;28;20557;-69
2023/04/25 01:55:44;;;;;;;1.60;0.87;;;7.20;99.90;;;;;;4995998;28;20177;-68
2023/04/25 01:58:12;;;;;;;2.20;2.10;;;7.30;99.90;;;;;;4995729;28;20419;-70
2023/04/25 02:00:39;;;;;;;1.05;0.80;;;7.30;99.90;;;;;;4995839;28;20175;-70
2023/04/25 02:03:05;;;;;;;0.85;0.85;;;7.50;99.90;;;;;;4995900;28;20197;-69
2023/04/25 02:05:37;;;;;;;1.02;1.02;;;7.50;99.90;;;;;;4995773;28;20173;-70
2023/04/25 02:08:06;;;;;;;8.98;1.40;;;7.50;99.90;;;;;;4995695;28;20264;-69
2023/04/25 02:10:32;;;;;;;1.17;1.15;;;7.50;99.90;;;;;;4995806;28;20669;-70
2023/04/25 02:12:58;;;;;;;1.00;0.70;;;7.70;99.90;;;;;;4995573;28;20187;-70
2023/04/25 02:15:24;;;;;;;0.80;0.80;;;7.70;99.90;;;;;;4995540;28;20172;-69
2023/04/25 02:17:49;;;;;;;11.23;2.30;;;7.80;99.90;;;;;;4995556;28;20430;-69
2023/04/25 02:20:19;;;;;;;0.40;0.40;;;7.90;99.90;;;;;;4995676;28;20699;-69
2023/04/25 02:22:45;;;;;;;0.68;0.68;;;7.90;99.90;;;;;;4995442;28;20279;-69
2023/04/25 02:25:11;;;;;;;0.70;0.70;;;7.90;99.90;;;;;;4995266;28;20610;-69
2023/04/25 02:27:37;;;;;;;1.33;1.33;;;7.90;99.90;;;;;;4995253;28;20269;-70
2023/04/25 02:30:04;;;;;;;0.40;0.40;;;7.60;99.90;;;;;;4995152;28;20297;-70
2023/04/25 02:32:30;;;;;;;1.23;1.20;;;7.60;99.90;;;;;;4995287;28;20230;-69
2023/04/25 02:34:58;;;;;;;0.60;0.60;;;7.60;99.90;;;;;;4995238;28;20194;-69
2023/04/25 02:37:24;;;;;;;0.75;0.75;;;7.50;99.90;;;;;;4995125;28;20584;-70
2023/04/25 02:39:49;;;;;;;0.50;0.50;;;7.40;99.90;;;;;;4995229;28;20181;-69
2023/04/25 02:42:15;;;;;;;1.03;0.93;;;7.30;99.90;;;;;;4995166;28;20773;-69
2023/04/25 02:44:41;;;;;;;2.37;2.20;;;7.30;99.90;;;;;;4995002;28;20571;-70
2023/04/25 02:47:06;;;;;;;1.47;1.47;;;7.10;99.90;;;;;;4994804;28;20178;-70
2023/04/25 02:49:32;;;;;;;2.63;2.47;;;7.00;99.90;;;;;;4994903;28;20171;-70
2023/04/25 02:51:58;;;;;;;0.40;0.40;;;6.90;99.90;;;;;;4994827;28;20264;-69
2023/04/25 02:54:23;;;;;;;5.30;1.70;;;6.80;99.90;;;;;;4994906;28;20691;-69
2023/04/25 02:56:49;;;;;;;0.97;0.97;;;6.70;99.90;;;;;;4994761;28;20216;-70
2023/04/25 02:59:15;;;;;;;1.08;0.98;;;6.70;99.90;;;;;;4994785;28;20197;-69
2023/04/25 03:01:41;;;;;;;4.67;2.90;;;6.70;99.90;;;;;;4994757;28;20295;-69
2023/04/25 03:04:06;;;;;;;0.37;0.37;;;6.60;99.90;;;;;;4994663;28;20193;-69
2023/04/25 03:06:32;;;;;;;0.63;0.63;;;6.50;99.90;;;;;;4994738;28;20532;-69
2023/04/25 03:08:57;;;;;;;0.70;0.70;;;6.40;99.90;;;;;;4993271;28;20216;-68
2023/04/25 03:11:25;;;;;;;1.60;1.50;;;6.40;99.90;;;;;;4994574;28;20191;-69
2023/04/25 03:13:51;;;;;;;0.73;0.60;;;6.30;99.90;;;;;;4990260;28;20304;-69
2023/04/25 03:16:16;;;;;;;2.20;0.90;;;6.30;99.90;;;;;;4994564;28;20262;-68
2023/04/25 03:18:42;;;;;;;0.50;0.50;;;6.20;99.90;;;;;;4994449;28;20263;-69
2023/04/25 03:21:08;;;;;;;0.60;0.60;;;6.10;99.90;;;;;;4993028;28;20196;-69
2023/04/25 03:23:33;;;;;;;0.40;0.40;;;6.10;99.90;;;;;;4994334;28;20216;-70
2023/04/25 03:25:59;;;;;;;0.40;0.40;;;6.00;99.90;;;;;;4994058;28;20408;-69
2023/04/25 03:28:25;;;;;;;0.40;0.40;;;6.00;99.90;;;;;;4994120;28;20165;-69
2023/04/25 03:30:51;;;;;;;0.40;0.40;;;5.90;99.90;;;;;;4992909;28;20487;-69
2023/04/25 03:33:16;;;;;;;0.70;0.70;;;5.90;99.90;;;;;;4994313;28;20235;-69
2023/04/25 03:35:42;;;;;;;0.60;0.60;;;6.00;99.90;;;;;;4994097;28;20294;-69
2023/04/25 03:38:08;;;;;;;0.83;0.83;;;6.00;99.90;;;;;;4994123;28;20179;-69
2023/04/25 03:40:34;;;;;;;0.83;0.83;;;5.90;99.90;;;;;;4994361;28;20406;-70
2023/04/25 03:42:59;;;;;;;0.70;0.70;;;5.90;99.90;;;;;;4994115;28;20466;-70
2023/04/25 03:45:25;;;;;;;1.80;1.80;;;5.90;99.90;;;;;;4994087;28;20168;-70
2023/04/25 03:47:51;;;;;;;0.90;0.90;;;5.90;99.90;;;;;;4993888;28;20176;-70
2023/04/25 03:50:16;;;;;;;0.40;0.40;;;5.90;99.90;;;;;;4993865;28;20673;-69
2023/04/25 03:52:43;;;;;;;0.57;0.50;;;5.90;99.90;;;;;;4993854;28;20531;-69
2023/04/25 03:55:09;;;;;;;0.52;0.50;;;5.90;99.90;;;;;;4993870;28;20196;-69
2023/04/25 03:57:35;;;;;;;0.40;0.40;;;5.90;99.90;;;;;;4993747;28;20200;-69
2023/04/25 04:00:01;;;;;;;1.70;0.87;;;5.90;99.90;;;;;;4993980;28;20203;-69
2023/04/25 04:02:26;;;;;;;2.00;1.90;;;5.90;99.90;;;;;;4994022;28;20173;-70
2023/04/25 04:04:52;;;;;;;0.87;0.87;;;5.90;99.90;;;;;;4993753;28;20466;-70
2023/04/25 04:07:18;;;;;;;0.50;0.50;;;6.10;99.90;;;;;;4993677;28;20207;-68
2023/04/25 04:09:43;;;;;;;1.20;1.20;;;6.10;99.90;;;;;;4993760;28;20655;-69
2023/04/25 04:12:09;;;;;;;2.10;1.13;;;6.10;99.90;;;;;;4993962;28;20167;-68
2023/04/25 04:14:35;;;;;;;0.50;0.50;;;6.10;99.90;;;;;;4993731;28;20186;-70
2023/04/25 04:17:00;;;;;;;1.43;0.90;;;6.10;99.90;;;;;;4993865;28;20413;-70
2023/04/25 04:19:26;;;;;;;0.67;0.67;;;6.20;99.90;;;;;;4992570;28;20168;-69
2023/04/25 04:21:52;;;;;;;0.67;0.67;;;6.10;99.90;;;;;;4993685;28;20247;-70
2023/04/25 04:24:17;;;;;;;1.27;1.17;;;6.10;99.90;;;;;;4993574;28;20552;-70
2023/04/25 04:26:44;;;;;;;0.60;0.60;;;6.00;99.90;;;;;;4993775;28;20168;-69
2023/04/25 04:29:10;;;;;;;1.13;1.13;;;5.90;99.90;;;;;;4993972;28;20196;-70
2023/04/25 04:31:36;;;;;;;2.70;1.35;;;5.90;99.90;;;;;;4993702;28;20558;-68
2023/04/25 04:34:03;;;;;;;1.83;1.73;;;6.00;99.90;;;;;;4993558;28;20186;-69
2023/04/25 04:36:29;;;;;;;0.40;0.40;;;5.90;99.90;;;;;;4993561;28;20172;-69
2023/04/25 04:38:56;;;;;;;1.63;1.53;;;5.90;99.90;;;;;;4996617;28;20535;-69
2023/04/25 04:41:22;;;;;;;0.82;0.82;;;5.90;99.90;;;;;;4997330;28;20407;-70
2023/04/25 04:43:47;;;;;;;1.73;0.93;;;5.90;99.90;;;;;;4997227;28;20277;-70
2023/04/25 04:46:14;;;;;;;0.60;0.60;;;5.90;99.90;;;;;;4997164;28;20617;-68
2023/04/25 04:48:39;;;;;;;0.55;0.55;;;6.00;99.90;;;;;;4996960;28;20220;-70
2023/04/25 04:51:06;;;;;;;0.90;0.63;;;6.00;99.90;;;;;;4997031;28;20522;-69
2023/04/25 04:53:32;;;;;;;0.80;0.80;;;6.00;99.90;;;;;;4996931;28;20213;-68
2023/04/25 04:56:02;;;;;;;0.50;0.50;;;6.10;99.90;;;;;;4997207;28;20181;-69
2023/04/25 04:58:29;;;;;;;0.50;0.50;;;6.20;99.90;;;;;;4996928;28;20531;-70
2023/04/25 05:00:55;;;;;;;3.83;1.38;;;6.30;99.90;;;;;;4997109;28;20201;-70
2023/04/25 05:03:21;;;;;;;0.85;0.85;;;6.40;99.90;;;;;;4997277;28;20193;-70
2023/04/25 05:05:47;;;;;;;0.88;0.88;;;6.50;99.90;;;;;;4996884;28;20577;-70
2023/04/25 05:08:13;;;;;;;0.60;0.60;;;6.60;99.90;;;;;;4996712;28;20176;-69
2023/04/25 05:10:38;;;;;;;0.73;0.73;;;6.70;99.90;;;;;;4996716;28;20284;-70
2023/04/25 05:13:04;;;;;;;0.63;0.63;;;6.90;99.90;;;;;;4996799;28;20168;-70
2023/04/25 05:15:29;;;;;;;1.50;1.40;;;6.90;99.90;;;;;;4996670;28;20181;-71
2023/04/25 05:17:55;;;;;;;0.40;0.40;;;7.10;99.90;;;;;;4996548;28;20999;-70
2023/04/25 05:20:20;;;;;;;0.80;0.80;;;7.60;99.90;;;;;;4996759;28;20183;-69
2023/04/25 05:22:46;;;;;;;0.67;0.40;;;8.40;99.90;;;;;;4996614;28;20171;-69
2023/04/25 05:25:12;;;;;;;1.63;0.83;;;9.30;99.90;;;;;;4996569;28;20568;-69
2023/04/25 05:27:37;;;;;;;1.90;1.60;;;10.10;99.90;;;;;;4995117;28;20535;-70
2023/04/25 05:30:05;;;;;;;1.53;1.20;;;10.70;99.30;;;;;;4996998;28;20261;-69
2023/04/25 05:32:30;;;;;;;0.52;0.52;;;11.20;96.90;;;;;;4995719;28;20161;-69
2023/04/25 05:34:56;;;;;;;2.00;1.90;;;11.00;94.00;;;;;;4994000;28;20691;-69
2023/04/25 05:37:21;;;;;;;1.63;1.53;;;10.50;93.20;;;;;;4996047;28;20179;-69
2023/04/25 05:39:47;;;;;;;1.03;1.03;;;9.90;93.70;;;;;;4996205;28;20660;-70
2023/04/25 05:42:13;;;;;;;0.57;0.57;;;9.00;94.70;;;;;;4994368;28;20164;-70
2023/04/25 05:44:39;;;;;;;0.47;0.47;;;8.30;96.10;;;;;;4995911;28;20197;-68
2023/04/25 05:47:04;;;;;;;0.40;0.40;;;7.90;96.60;;;;;;4994529;28;20179;-69
2023/04/25 05:49:30;;;;;;;0.60;0.50;;;7.20;97.50;;;;;;4995735;28;20722;-70
2023/04/25 05:51:56;;;;;;;0.60;0.60;;;6.90;98.00;;;;;;4994700;28;20257;-68
2023/04/25 05:54:21;;;;;;;0.40;0.40;;;6.30;97.90;;;;;;4996370;28;20673;-68
2023/04/25 05:56:47;;;;;;;0.40;0.40;;;6.00;98.80;;;;;;4995703;28;20170;-70
2023/04/25 05:59:12;;;;;;;0.80;0.80;;;5.90;99.60;;;;;;4992819;28;20243;-69
2023/04/25 06:01:38;;;;;;;0.50;0.50;;;5.80;99.60;;;;;;4995559;28;20180;-68
2023/04/25 06:04:04;;;;;;;1.03;1.03;;;5.70;99.50;;;;;;4994642;28;20188;-69
2023/04/25 06:06:30;;;;;;;0.40;0.40;;;5.60;99.60;;;;;;4994852;28;20176;-69
2023/04/25 06:08:55;;;;;;;0.40;0.40;;;5.50;99.80;;;;;;4993913;28;20176;-69
2023/04/25 06:11:21;;;;;;;0.30;0.30;;;5.50;99.90;;;;;;4993824;28;20282;-69
2023/04/25 06:13:47;;;;;;;0.40;0.40;;;5.40;99.90;;;;;;4995367;28;20211;-69
2023/04/25 06:16:13;;;;;;;0.40;0.40;;;5.40;99.90;;;;;;4995788;28;20218;-69
2023/04/25 06:18:39;;;;;;;0.50;0.50;;;5.40;99.90;;;;;;4995386;28;20173;-69
2023/04/25 06:21:04;;;;;;;0.50;0.50;;;5.40;99.90;;;;;;4995498;28;20179;-69
2023/04/25 06:23:30;;;;;;;0.30;0.30;;;5.40;99.90;;;;;;4994110;28;20207;-69
2023/04/25 06:25:56;;;;;;;0.40;0.40;;;5.40;99.90;;;;;;4995356;28;20183;-69
2023/04/25 06:28:21;;;;;;;0.40;0.40;;;5.50;99.90;;;;;;4995156;28;20174;-69
2023/04/25 06:30:48;;;;;;;0.40;0.40;;;5.60;99.90;;;;;;4993639;28;20201;-70
2023/04/25 06:33:13;;;;;;;0.40;0.40;;;5.70;99.90;;;;;;4995086;28;20201;-71
2023/04/25 06:35:39;;;;;;;0.30;0.30;;;5.70;99.90;;;;;;4995417;28;20173;-70
2023/04/25 06:38:04;;;;;;;1.07;1.00;;;5.70;99.80;;;;;;4992223;28;20178;-69
2023/04/25 06:40:30;;;;;;;0.50;0.50;;;5.80;99.90;;;;;;4995827;28;20618;-69
2023/04/25 06:42:56;;;;;;;0.40;0.40;;;5.90;99.90;;;;;;4994919;28;20189;-69
2023/04/25 06:45:21;;;;;;;0.40;0.40;;;5.90;99.70;;;;;;4993235;28;20586;-69
2023/04/25 06:47:47;;;;;;;0.30;0.30;;;6.00;99.40;;;;;;4994041;28;20755;-69
2023/04/25 06:50:12;;;;;;;0.90;0.90;;;6.10;99.30;;;;;;4994456;28;20193;-68
2023/04/25 06:52:38;;;;;;;0.60;0.60;;;6.20;99.90;;;;;;4992363;28;20211;-68
2023/04/25 06:55:05;;;;;;;0.40;0.40;;;7.10;99.90;;;;;;4994809;28;20297;-68
2023/04/25 06:57:31;;;;;;;0.50;0.50;;;8.20;99.90;;;;;;4993622;28;20662;-70
2023/04/25 06:59:57;;;;;;;0.50;0.50;;;9.20;99.90;;;;;;4994190;28;20176;-70
2023/04/25 07:02:22;;;;;;;0.40;0.40;;;9.50;98.70;;;;;;4994921;28;20227;-69
2023/04/25 07:04:48;;;;;;;0.40;0.40;;;9.30;94.90;;;;;;4993319;28;20200;-70
2023/04/25 07:07:13;;;;;;;1.37;0.97;;;8.80;93.50;;;;;;4994606;28;20182;-70
2023/04/25 07:09:39;;;;;;;0.67;0.67;;;8.40;93.50;;;;;;4994589;28;20187;-69
2023/04/25 07:12:05;;;;;;;0.57;0.50;;;7.90;94.20;;;;;;4994694;28;20191;-70
2023/04/25 07:14:30;;;;;;;8.23;1.43;;;7.50;94.60;;;;;;4994311;28;20201;-70
2023/04/25 07:16:56;;;;;;;0.60;0.60;;;7.20;95.20;;;;;;4993995;28;20179;-70
2023/04/25 07:19:26;;;;;;;0.50;0.50;;;6.90;95.70;;;;;;4992716;28;20187;-69
2023/04/25 07:21:52;;;;;;;0.85;0.85;;;6.70;96.20;;;;;;4994648;28;20425;-70
2023/04/25 07:24:18;;;;;;;1.02;1.02;;;6.50;96.70;;;;;;4993919;28;20200;-69
2023/04/25 07:26:43;;;;;;;2.67;1.77;;;6.40;97.40;;;;;;4991634;28;20298;-68
2023/04/25 07:29:09;;;;;;;0.80;0.80;;;6.40;98.10;;;;;;4993705;28;20418;-74
2023/04/25 07:31:35;;;;;;;0.60;0.50;;;6.50;98.30;;;;;;4992535;28;20203;-71
2023/04/25 07:34:01;;;;;;;0.50;0.50;;;6.60;98.50;;;;;;4992848;28;20191;-70
2023/04/25 07:36:27;;;;;;;0.50;0.50;;;6.60;98.30;;;;;;4993287;28;20173;-70
2023/04/25 07:38:52;;;;;;;0.33;0.33;;;6.70;98.50;;;;;;4992931;28;20175;-71
2023/04/25 07:41:18;;;;;;;0.60;0.60;;;6.70;98.40;;;;;;4993450;28;20518;-71
2023/04/25 07:43:43;;;;;;;0.40;0.40;;;6.70;98.80;;;;;;4994057;28;20190;-71
2023/04/25 07:46:09;;;;;;;0.70;0.70;;;6.70;99.00;;;;;;4994590;28;20182;-71
2023/04/25 07:48:35;;;;;;;0.53;0.53;;;6.70;99.10;;;;;;4994593;28;20181;-71
2023/04/25 07:51:00;;;;;;;0.30;0.30;;;6.70;99.10;;;;;;4994364;28;20208;-69
2023/04/25 07:53:26;;;;;;;0.40;0.40;;;6.80;99.50;;;;;;4994362;28;20206;-70
2023/04/25 07:55:51;;;;;;;0.30;0.30;;;6.80;99.60;;;;;;4993922;28;20173;-69
2023/04/25 07:58:21;;;;;;;0.40;0.40;;;6.80;99.70;;;;;;4993789;28;20175;-68
2023/04/25 08:00:47;;;;;;;1.40;0.73;;;6.70;99.60;;;;;;4992830;28;20174;-69
2023/04/25 08:03:12;;;;;;;1.05;0.73;;;6.80;99.90;;;;;;4994009;28;20239;-70
2023/04/25 08:05:38;;;;;;;0.40;0.40;;;7.10;99.90;;;;;;4994141;28;20643;-70
2023/04/25 08:08:06;;;;;;;0.30;0.30;;;7.30;99.90;;;;;;4993652;28;20228;-69
2023/04/25 08:10:32;;;;;;;1.05;1.05;;;7.40;99.40;;;;;;4991988;28;20196;-70
2023/04/25 08:12:59;;;;;;;0.40;0.40;;;7.70;99.90;;;;;;4997256;28;20546;-69
2023/04/25 08:15:25;;;;;;;0.40;0.40;;;7.60;99.20;;;;;;4997576;28;20539;-69
2023/04/25 08:17:51;;;;;;;0.40;0.40;;;7.60;99.00;;;;;;4996023;28;20293;-68
2023/04/25 08:20:16;;;;;;;0.40;0.40;;;7.50;98.70;;;;;;4997829;28;20168;-68
2023/04/25 08:22:42;;;;;;;0.40;0.40;;;7.60;98.60;;;;;;4998231;28;20175;-69
2023/04/25 08:25:08;;;;;;;0.40;0.40;;;7.60;98.40;;;;;;4997932;28;20202;-69
2023/04/25 08:27:34;;;;;;;0.30;0.30;;;7.50;98.90;;;;;;4997390;28;20183;-69
2023/04/25 08:30:00;;;;;;;0.50;0.50;;;7.40;99.30;;;;;;4997346;28;20659;-69
2023/04/25 08:32:26;;;;;;;0.40;0.40;;;7.50;99.60;;;;;;4995650;28;20203;-69
2023/04/25 08:34:53;;;;;;;0.30;0.30;;;7.50;99.60;;;;;;4996037;28;20423;-69
2023/04/25 08:37:20;;;;;;;0.30;0.30;;;7.40;99.60;;;;;;4995356;28;20217;-69
2023/04/25 08:39:47;;;;;;;0.40;0.40;;;7.50;99.90;;;;;;4996375;28;20206;-69
2023/04/25 08:42:15;;;;;;;0.30;0.30;;;7.70;99.80;;;;;;4997407;28;20168;-69
2023/04/25 08:44:41;;;;;;;0.88;0.55;;;7.90;99.90;;;;;;4993762;28;20760;-67
2023/04/25 08:47:07;;;;;;;0.30;0.30;;;8.00;98.90;;;;;;4997032;28;20171;-69
2023/04/25 08:49:33;;;;;;;0.40;0.40;;;8.30;99.30;;;;;;4997610;28;20164;-69
2023/04/25 08:52:06;;;;;;;1.08;0.95;;;8.70;99.20;;;;;;4996986;28;20528;-68
2023/04/25 08:54:32;;;;;;;0.32;0.32;;;9.00;98.20;;;;;;4997216;28;20758;-68
2023/04/25 08:57:01;;;;;;;0.30;0.30;;;9.10;97.10;;;;;;4996936;28;20179;-68
2023/04/25 08:59:28;;;;;;;0.30;0.30;;;8.90;97.30;;;;;;4996226;28;20862;-67
2023/04/25 09:01:54;;;;;;;0.30;0.30;;;9.40;98.70;;;;;;4996249;28;20181;-68
2023/04/25 09:04:21;;;;;;;0.85;0.80;;;10.20;99.90;;;;;;4995902;28;20196;-68
2023/04/25 09:06:47;;;;;;;0.40;0.40;;;10.20;94.60;;;;;;4996827;28;20176;-68
2023/04/25 09:09:13;;;;;;;0.30;0.30;;;10.60;94.40;;;;;;4996783;28;20172;-68
2023/04/25 09:11:40;;;;;;;0.30;0.30;;;10.70;94.30;;;;;;4996718;28;20299;-68
2023/04/25 09:14:12;;;;;;;0.30;0.30;;;10.70;93.70;;;;;;4995861;28;20438;-68
2023/04/25 09:17:00;;;;;;;0.30;0.30;;;10.60;93.60;;;;;;4994918;28;20180;-68
2023/04/25 09:19:26;;;;;;;0.30;0.30;;;10.00;93.60;;;;;;4996557;28;20176;-68
2023/04/25 09:21:55;;;;;;;0.30;0.30;;;9.90;94.90;;;;;;4996697;28;20182;-68
2023/04/25 09:24:31;;;;;;;0.88;0.60;;;9.80;95.90;;;;;;4995931;28;20195;-68
2023/04/25 09:26:57;;;;;;;0.30;0.30;;;9.70;95.80;;;;;;4996736;28;20522;-67
2023/04/25 09:29:33;;;;;;;0.40;0.40;;;9.90;95.70;;;;;;4997036;28;20176;-68
2023/04/25 09:32:12;;;;;;;0.30;0.30;;;10.00;94.60;;;;;;4996905;28;20199;-69
2023/04/25 09:34:42;;;;;;;0.30;0.30;;;10.00;95.00;;;;;;4996279;28;20215;-69
2023/04/25 09:37:12;;;;;;;0.45;0.45;;;10.10;94.40;;;;;;4996389;28;20219;-67
2023/04/25 09:39:38;;;;;;;0.30;0.30;;;10.10;95.00;;;;;;4996646;28;20164;-68
2023/04/25 09:42:05;;;;;;;0.40;0.40;;;9.70;94.10;;;;;;4996813;28;20205;-68
2023/04/25 09:44:31;;;;;;;0.30;0.30;;;9.00;95.20;;;;;;4996383;28;20613;-68
2023/04/25 09:46:57;;;;;;;0.50;0.50;;;9.00;96.40;;;;;;4996021;28;20259;-70
2023/04/25 09:49:23;;;;;;;0.40;0.40;;;8.90;96.80;;;;;;4996291;28;20403;-70
2023/04/25 09:51:58;;;;;;;0.40;0.40;;;8.80;96.70;;;;;;4995907;28;20210;-69
2023/04/25 09:54:25;;;;;;;0.30;0.30;;;8.90;96.70;;;;;;4996315;28;20188;-68
2023/04/25 09:56:53;;;;;;;0.30;0.30;;;9.60;96.90;;;;;;4995920;28;20176;-70
2023/04/25 09:59:24;;;;;;;1.10;1.10;;;10.50;96.60;;;;;;4995968;28;20255;-71
2023/04/25 10:01:51;;;;;;;0.40;0.40;;;11.30;93.60;;;;;;4994711;28;20691;-71
2023/04/25 10:04:26;;;;;;;0.70;0.70;;;12.10;92.10;;;;;;4995833;28;20204;-71
2023/04/25 10:06:53;;;;;;;0.40;0.40;;;12.40;91.70;;;;;;4995369;28;20410;-72
2023/04/25 10:09:25;;;;;;;0.37;0.37;;;12.40;91.70;;;;;;4994400;28;20525;-71
2023/04/25 10:11:52;;;;;;;0.87;0.53;;;12.40;90.60;;;;;;4995928;28;20549;-69
2023/04/25 10:14:19;;;;;;;0.40;0.40;;;11.90;89.90;;;;;;4995490;28;20931;-71
2023/04/25 10:16:46;;;;;;;0.60;0.60;;;11.30;90.50;;;;;;4995711;28;20549;-70
2023/04/25 10:19:13;;;;;;;0.47;0.47;;;11.00;91.70;;;;;;4996051;28;20165;-71
2023/04/25 10:22:05;;;;;;;0.40;0.40;;;10.70;91.80;;;;;;4995723;28;20235;-71
2023/04/25 10:24:32;;;;;;;0.40;0.40;;;10.70;92.90;;;;;;4971205;28;20726;-71
2023/04/25 10:26:58;;;;;;;0.57;0.57;;;11.10;92.10;;;;;;4995080;28;20262;-68
2023/04/25 10:29:27;;;;;;;0.53;0.50;;;11.60;92.30;;;;;;4995090;28;20450;-70
2023/04/25 10:31:52;;;;;;;1.43;0.73;;;12.50;91.50;;;;;;4993350;28;20463;-70
2023/04/25 10:34:19;;;;;;;0.80;0.70;;;13.60;90.10;;;;;;4995100;28;20427;-71
2023/04/25 10:36:51;;;;;;;0.77;0.77;;;14.70;89.00;;;;;;4994067;28;20414;-70
2023/04/25 10:39:26;;;;;;;0.30;0.30;;;15.50;83.00;;;;;;4994574;28;20412;-70
2023/04/25 10:41:59;;;;;;;0.50;0.50;;;15.70;82.80;;;;;;4995185;28;20462;-71
2023/04/25 10:44:31;;;;;;;0.40;0.40;;;16.00;80.20;;;;;;4994884;28;20432;-70
2023/04/25 10:46:58;;;;;;;0.50;0.50;;;16.20;79.20;;;;;;4994792;28;20504;-70
2023/04/25 10:49:35;;;;;;;0.40;0.40;;;16.20;77.20;;;;;;4995208;28;20418;-71
2023/04/25 10:52:18;;;;;;;0.53;0.53;;;16.20;76.10;;;;;;4994691;28;20474;-69
2023/04/25 10:54:52;;;;;;;0.50;0.50;;;16.00;76.90;;;;;;4994908;28;20436;-71
2023/04/25 10:57:51;;;;;;;0.60;0.60;;;15.20;73.50;;;;;;4994874;28;20984;-71
2023/04/25 11:00:19;;;;;;;0.50;0.50;;;15.00;81.60;;;;;;4962419;28;20424;-70
2023/04/25 11:02:58;;;;;;;0.40;0.40;;;15.00;79.70;;;;;;4994807;28;20447;-70
2023/04/25 11:05:33;;;;;;;0.47;0.47;;;14.40;77.30;;;;;;4994793;28;20407;-71
2023/04/25 11:07:59;;;;;;;0.70;0.70;;;13.50;80.00;;;;;;4994564;28;20411;-69
2023/04/25 11:10:32;;;;;;;0.50;0.50;;;12.60;78.50;;;;;;4994541;28;20458;-70
2023/04/25 11:12:59;;;;;;;0.70;0.70;;;11.80;94.10;;;;;;4994487;28;20412;-70
2023/04/25 11:15:25;;;;;;;0.47;0.40;;;11.90;84.60;;;;;;4994576;28;20470;-71
2023/04/25 11:17:55;;;;;;;0.67;0.67;;;11.70;86.70;;;;;;4994416;28;20404;-70
2023/04/25 11:20:22;;;;;;;0.30;0.30;;;11.70;89.40;;;;;;4994560;28;20177;-70
2023/04/25 11:22:48;;;;;;;0.30;0.30;;;11.80;88.90;;;;;;4994391;28;20879;-71
2023/04/25 11:25:16;;;;;;;0.40;0.40;;;11.90;88.20;;;;;;4994266;28;20800;-71
2023/04/25 11:27:51;;;;;;;0.60;0.60;;;11.70;85.90;;;;;;4994099;28;20176;-71
2023/04/25 11:30:18;;;;;;;0.87;0.87;;;12.00;88.80;;;;;;4994323;28;20496;-70
2023/04/25 11:32:43;;;;;;;1.37;0.87;;;12.60;87.30;;;;;;4994210;28;20435;-71
2023/04/25 11:35:10;;;;;;;1.90;0.83;;;12.80;82.40;;;;;;4994168;28;20463;-71
2023/04/25 11:37:36;;;;;;;0.40;0.40;;;12.80;82.90;;;;;;4994012;28;20227;-71
2023/04/25 11:40:06;;;;;;;0.60;0.60;;;12.40;82.60;;;;;;4994358;28;20408;-69
2023/04/25 11:42:32;;;;;;;0.47;0.47;;;12.10;85.10;;;;;;4994201;28;20407;-70
2023/04/25 11:44:58;;;;;;;0.80;0.80;;;11.90;84.80;;;;;;4993871;28;20431;-70
2023/04/25 11:47:31;;;;;;;0.40;0.40;;;11.80;85.00;;;;;;4993578;28;20892;-70
2023/04/25 11:50:04;;;;;;;0.30;0.30;;;11.60;85.50;;;;;;4993943;28;20469;-70
2023/04/25 11:52:40;;;;;;;0.30;0.30;;;11.60;86.70;;;;;;4993893;28;20223;-70
2023/04/25 11:55:08;;;;;;;0.30;0.30;;;11.60;90.00;;;;;;4993903;28;20657;-70
2023/04/25 11:57:33;;;;;;;0.30;0.30;;;11.50;88.60;;;;;;4993879;28;20404;-70
2023/04/25 12:00:15;;;;;;;0.50;0.50;;;11.50;88.90;;;;;;4992842;28;20343;-69
2023/04/25 12:02:41;;;;;;;0.50;0.50;;;11.80;90.50;;;;;;4994290;28;20167;-70
2023/04/25 12:05:08;;;;;;;0.50;0.50;;;12.20;90.20;;;;;;4994064;28;20477;-71
2023/04/25 12:07:35;;;;;;;0.60;0.60;;;12.40;88.80;;;;;;4993891;28;20406;-70
2023/04/25 12:10:08;;;;;;;0.60;0.60;;;12.50;84.30;;;;;;4993970;28;20525;-70
2023/04/25 12:12:35;;;;;;;0.85;0.85;;;12.40;84.80;;;;;;4994277;28;20412;-70
2023/04/25 12:15:24;;;;;;;0.87;0.87;;;12.30;87.30;;;;;;4993771;28;20196;-70
2023/04/25 12:17:53;;;;;;;0.30;0.30;;;12.30;87.80;;;;;;4993762;28;20482;-70
2023/04/25 12:20:23;;;;;;;0.50;0.40;;;12.20;86.50;;;;;;4992552;28;20764;-70
2023/04/25 12:22:49;;;;;;;0.50;0.50;;;12.10;87.20;;;;;;4993750;28;20409;-70
2023/04/25 12:25:45;;;;;;;0.40;0.40;;;12.00;87.70;;;;;;4993599;28;20431;-70
2023/04/25 12:28:23;;;;;;;0.40;0.40;;;11.80;87.30;;;;;;4993536;28;20415;-71
2023/04/25 12:31:06;;;;;;;2.73;2.63;;;11.30;88.20;;;;;;4993821;28;20458;-70
2023/04/25 12:33:39;;;;;;;0.50;0.50;;;10.80;90.40;;;;;;4993666;28;20450;-70
2023/04/25 12:36:10;;;;;;;0.40;0.40;;;10.60;97.20;;;;;;4993631;28;20408;-70
2023/04/25 12:38:40;;;;;;;0.40;0.40;;;10.60;92.20;;;;;;4993542;28;20200;-71
2023/04/25 12:41:06;;;;;;;0.83;0.73;;;10.40;92.30;;;;;;4993777;28;20176;-70
2023/04/25 12:43:32;;;;;;;1.53;0.77;;;11.00;92.80;;;;;;4993551;28;20439;-70
2023/04/25 12:45:58;;;;;;;0.40;0.40;;;10.60;91.70;;;;;;4993711;28;20475;-70
2023/04/25 12:48:24;;;;;;;1.43;1.37;;;10.80;92.60;;;;;;4993347;28;20431;-71
2023/04/25 12:50:51;;;;;;;0.40;0.40;;;11.10;92.00;;;;;;4993340;28;20230;-70
2023/04/25 12:53:18;;;;;;;1.60;1.50;;;11.20;91.10;;;;;;4993320;28;20484;-70
2023/04/25 12:55:48;;;;;;;0.40;0.40;;;11.30;91.20;;;;;;4993433;28;20466;-70